sensor_id;sensor_type;location;lat;lon;timestamp;P1;durP1;ratioP1;P2;durP2;ratioP2
39502;SDS011;26970;49.900;10.774;2024-03-22T00:01:08;8.48;;;4.40;;
39502;SDS011;26970;49.900;10.774;2024-03-22T00:03:34;7.18;;;4.20;;
39502;SDS011;26970;49.900;10.774;2024-03-22T00:05:59;10.27;;;4.32;;
39502;SDS011;26970;49.900;10.774;2024-03-22T00:08:25;6.30;;;3.30;;
39502;SDS011;26970;49.900;10.774;2024-03-22T00:10:51;5.78;;;3.20;;
39502;SDS011;26970;49.900;10.774;2024-03-22T00:13:16;5.63;;;3.05;;
39502;SDS011;26970;49.900;10.774;2024-03-22T00:15:42;5.88;;;3.08;;
39502;SDS011;26970;49.900;10.774;2024-03-22T00:18:09;8.30;;;3.50;;
39502;SDS011;26970;49.900;10.774;2024-03-22T00:20:35;5.63;;;3.22;;
39502;SDS011;26970;49.900;10.774;2024-03-22T00:23:00;7.20;;;3.50;;
39502;SDS011;26970;49.900;10.774;2024-03-22T00:25:26;8.07;;;3.40;;
39502;SDS011;26970;49.900;10.774;2024-03-22T00:27:51;5.72;;;3.30;;
39502;SDS011;26970;49.900;10.774;2024-03-22T00:30:17;7.78;;;3.95;;
39502;SDS011;26970;49.900;10.774;2024-03-22T00:32:42;6.30;;;3.60;;
39502;SDS011;26970;49.900;10.774;2024-03-22T00:35:10;5.13;;;3.15;;
39502;SDS011;26970;49.900;10.774;2024-03-22T00:37:36;9.93;;;3.15;;
39502;SDS011;26970;49.900;10.774;2024-03-22T00:40:01;6.00;;;3.05;;
39502;SDS011;26970;49.900;10.774;2024-03-22T00:42:27;7.10;;;3.58;;
39502;SDS011;26970;49.900;10.774;2024-03-22T00:44:53;5.20;;;3.10;;
39502;SDS011;26970;49.900;10.774;2024-03-22T00:47:20;5.85;;;3.75;;
39502;SDS011;26970;49.900;10.774;2024-03-22T00:49:45;6.28;;;3.30;;
39502;SDS011;26970;49.900;10.774;2024-03-22T00:52:11;5.68;;;3.38;;
39502;SDS011;26970;49.900;10.774;2024-03-22T00:54:36;5.32;;;3.08;;
39502;SDS011;26970;49.900;10.774;2024-03-22T00:57:04;4.90;;;3.03;;
39502;SDS011;26970;49.900;10.774;2024-03-22T00:59:30;4.55;;;2.75;;
39502;SDS011;26970;49.900;10.774;2024-03-22T01:01:55;5.43;;;2.97;;
39502;SDS011;26970;49.900;10.774;2024-03-22T01:04:21;5.88;;;3.05;;
39502;SDS011;26970;49.900;10.774;2024-03-22T01:06:46;6.22;;;3.03;;
39502;SDS011;26970;49.900;10.774;2024-03-22T01:09:12;4.78;;;2.88;;
39502;SDS011;26970;49.900;10.774;2024-03-22T01:11:37;5.45;;;2.63;;
39502;SDS011;26970;49.900;10.774;2024-03-22T01:14:03;6.85;;;3.13;;
39502;SDS011;26970;49.900;10.774;2024-03-22T01:16:28;8.30;;;3.50;;
39502;SDS011;26970;49.900;10.774;2024-03-22T01:18:53;5.97;;;3.80;;
39502;SDS011;26970;49.900;10.774;2024-03-22T01:21:19;7.07;;;3.17;;
39502;SDS011;26970;49.900;10.774;2024-03-22T01:23:49;4.68;;;2.83;;
39502;SDS011;26970;49.900;10.774;2024-03-22T01:26:18;7.90;;;2.95;;
39502;SDS011;26970;49.900;10.774;2024-03-22T01:28:43;4.63;;;3.08;;
39502;SDS011;26970;49.900;10.774;2024-03-22T01:31:09;9.40;;;3.17;;
39502;SDS011;26970;49.900;10.774;2024-03-22T01:33:34;5.68;;;3.17;;
39502;SDS011;26970;49.900;10.774;2024-03-22T01:36:00;7.15;;;3.22;;
39502;SDS011;26970;49.900;10.774;2024-03-22T01:38:25;5.57;;;3.20;;
39502;SDS011;26970;49.900;10.774;2024-03-22T01:40:51;7.13;;;3.05;;
39502;SDS011;26970;49.900;10.774;2024-03-22T01:43:16;7.82;;;3.30;;
39502;SDS011;26970;49.900;10.774;2024-03-22T01:45:42;6.07;;;3.20;;
39502;SDS011;26970;49.900;10.774;2024-03-22T01:48:08;6.28;;;3.30;;
39502;SDS011;26970;49.900;10.774;2024-03-22T01:50:33;5.53;;;3.25;;
39502;SDS011;26970;49.900;10.774;2024-03-22T01:52:59;5.25;;;3.15;;
39502;SDS011;26970;49.900;10.774;2024-03-22T01:55:26;5.68;;;2.85;;
39502;SDS011;26970;49.900;10.774;2024-03-22T01:57:53;6.50;;;3.20;;
39502;SDS011;26970;49.900;10.774;2024-03-22T02:00:20;6.63;;;3.30;;
39502;SDS011;26970;49.900;10.774;2024-03-22T02:02:46;6.82;;;3.50;;
39502;SDS011;26970;49.900;10.774;2024-03-22T02:05:12;4.85;;;2.92;;
39502;SDS011;26970;49.900;10.774;2024-03-22T02:07:40;4.25;;;2.65;;
39502;SDS011;26970;49.900;10.774;2024-03-22T02:10:06;5.90;;;2.97;;
39502;SDS011;26970;49.900;10.774;2024-03-22T02:12:33;5.07;;;2.92;;
39502;SDS011;26970;49.900;10.774;2024-03-22T02:14:59;4.80;;;2.78;;
39502;SDS011;26970;49.900;10.774;2024-03-22T02:17:24;4.50;;;2.50;;
39502;SDS011;26970;49.900;10.774;2024-03-22T02:19:50;6.15;;;3.03;;
39502;SDS011;26970;49.900;10.774;2024-03-22T02:22:15;5.60;;;2.90;;
39502;SDS011;26970;49.900;10.774;2024-03-22T02:24:41;5.45;;;3.28;;
39502;SDS011;26970;49.900;10.774;2024-03-22T02:27:06;5.72;;;3.40;;
39502;SDS011;26970;49.900;10.774;2024-03-22T02:29:32;6.18;;;3.20;;
39502;SDS011;26970;49.900;10.774;2024-03-22T02:31:57;6.20;;;3.10;;
39502;SDS011;26970;49.900;10.774;2024-03-22T02:34:23;6.72;;;3.50;;
39502;SDS011;26970;49.900;10.774;2024-03-22T02:36:49;5.82;;;3.42;;
39502;SDS011;26970;49.900;10.774;2024-03-22T02:39:14;5.68;;;2.90;;
39502;SDS011;26970;49.900;10.774;2024-03-22T02:41:40;5.45;;;3.20;;
39502;SDS011;26970;49.900;10.774;2024-03-22T02:44:05;6.63;;;3.47;;
39502;SDS011;26970;49.900;10.774;2024-03-22T02:46:31;5.85;;;3.30;;
39502;SDS011;26970;49.900;10.774;2024-03-22T02:48:56;8.98;;;3.35;;
39502;SDS011;26970;49.900;10.774;2024-03-22T02:51:22;9.90;;;3.75;;
39502;SDS011;26970;49.900;10.774;2024-03-22T02:53:48;8.20;;;3.88;;
39502;SDS011;26970;49.900;10.774;2024-03-22T02:56:13;6.00;;;3.30;;
39502;SDS011;26970;49.900;10.774;2024-03-22T02:58:38;5.82;;;3.28;;
39502;SDS011;26970;49.900;10.774;2024-03-22T03:01:04;4.88;;;3.00;;
39502;SDS011;26970;49.900;10.774;2024-03-22T03:03:30;6.70;;;3.55;;
39502;SDS011;26970;49.900;10.774;2024-03-22T03:05:56;6.03;;;3.17;;
39502;SDS011;26970;49.900;10.774;2024-03-22T03:08:22;5.25;;;3.30;;
39502;SDS011;26970;49.900;10.774;2024-03-22T03:10:47;6.20;;;3.20;;
39502;SDS011;26970;49.900;10.774;2024-03-22T03:13:13;7.43;;;3.88;;
39502;SDS011;26970;49.900;10.774;2024-03-22T03:15:38;6.35;;;3.50;;
39502;SDS011;26970;49.900;10.774;2024-03-22T03:18:04;8.82;;;4.20;;
39502;SDS011;26970;49.900;10.774;2024-03-22T03:20:29;7.63;;;4.40;;
39502;SDS011;26970;49.900;10.774;2024-03-22T03:22:55;11.68;;;4.35;;
39502;SDS011;26970;49.900;10.774;2024-03-22T03:25:24;6.53;;;3.45;;
39502;SDS011;26970;49.900;10.774;2024-03-22T03:27:50;6.10;;;3.95;;
39502;SDS011;26970;49.900;10.774;2024-03-22T03:30:15;7.00;;;3.70;;
39502;SDS011;26970;49.900;10.774;2024-03-22T03:32:41;8.05;;;3.60;;
39502;SDS011;26970;49.900;10.774;2024-03-22T03:35:06;6.15;;;3.58;;
39502;SDS011;26970;49.900;10.774;2024-03-22T03:37:32;7.65;;;4.00;;
39502;SDS011;26970;49.900;10.774;2024-03-22T03:39:58;7.65;;;3.85;;
39502;SDS011;26970;49.900;10.774;2024-03-22T03:42:23;7.75;;;4.00;;
39502;SDS011;26970;49.900;10.774;2024-03-22T03:44:49;8.32;;;3.80;;
39502;SDS011;26970;49.900;10.774;2024-03-22T03:47:14;7.47;;;3.67;;
39502;SDS011;26970;49.900;10.774;2024-03-22T03:49:40;6.10;;;3.67;;
39502;SDS011;26970;49.900;10.774;2024-03-22T03:52:06;6.22;;;3.88;;
39502;SDS011;26970;49.900;10.774;2024-03-22T03:54:31;5.65;;;3.33;;
39502;SDS011;26970;49.900;10.774;2024-03-22T03:56:57;7.40;;;3.60;;
39502;SDS011;26970;49.900;10.774;2024-03-22T03:59:22;6.22;;;3.25;;
39502;SDS011;26970;49.900;10.774;2024-03-22T04:01:48;7.75;;;3.95;;
39502;SDS011;26970;49.900;10.774;2024-03-22T04:04:14;8.05;;;3.53;;
39502;SDS011;26970;49.900;10.774;2024-03-22T04:06:39;7.80;;;3.90;;
39502;SDS011;26970;49.900;10.774;2024-03-22T04:09:05;6.53;;;3.47;;
39502;SDS011;26970;49.900;10.774;2024-03-22T04:11:31;7.63;;;4.03;;
39502;SDS011;26970;49.900;10.774;2024-03-22T04:13:56;9.27;;;3.65;;
39502;SDS011;26970;49.900;10.774;2024-03-22T04:16:22;9.60;;;3.88;;
39502;SDS011;26970;49.900;10.774;2024-03-22T04:18:47;5.50;;;3.35;;
39502;SDS011;26970;49.900;10.774;2024-03-22T04:21:13;6.35;;;3.67;;
39502;SDS011;26970;49.900;10.774;2024-03-22T04:23:39;6.88;;;4.03;;
39502;SDS011;26970;49.900;10.774;2024-03-22T04:26:04;8.63;;;3.80;;
39502;SDS011;26970;49.900;10.774;2024-03-22T04:28:30;7.20;;;3.38;;
39502;SDS011;26970;49.900;10.774;2024-03-22T04:31:02;6.25;;;3.65;;
39502;SDS011;26970;49.900;10.774;2024-03-22T04:33:30;6.75;;;3.45;;
39502;SDS011;26970;49.900;10.774;2024-03-22T04:35:56;7.65;;;4.07;;
39502;SDS011;26970;49.900;10.774;2024-03-22T04:38:23;9.50;;;4.78;;
39502;SDS011;26970;49.900;10.774;2024-03-22T04:40:49;8.65;;;4.75;;
39502;SDS011;26970;49.900;10.774;2024-03-22T04:43:15;11.13;;;4.13;;
39502;SDS011;26970;49.900;10.774;2024-03-22T04:45:47;7.00;;;4.05;;
39502;SDS011;26970;49.900;10.774;2024-03-22T04:48:14;5.65;;;3.78;;
39502;SDS011;26970;49.900;10.774;2024-03-22T04:50:42;6.45;;;3.47;;
39502;SDS011;26970;49.900;10.774;2024-03-22T04:53:07;5.38;;;3.42;;
39502;SDS011;26970;49.900;10.774;2024-03-22T04:55:33;5.93;;;3.95;;
39502;SDS011;26970;49.900;10.774;2024-03-22T04:57:58;7.20;;;3.80;;
39502;SDS011;26970;49.900;10.774;2024-03-22T05:00:24;11.70;;;3.65;;
39502;SDS011;26970;49.900;10.774;2024-03-22T05:02:50;6.78;;;3.88;;
39502;SDS011;26970;49.900;10.774;2024-03-22T05:05:16;6.80;;;3.83;;
39502;SDS011;26970;49.900;10.774;2024-03-22T05:07:42;10.48;;;4.30;;
39502;SDS011;26970;49.900;10.774;2024-03-22T05:10:07;10.32;;;4.93;;
39502;SDS011;26970;49.900;10.774;2024-03-22T05:12:34;9.40;;;5.13;;
39502;SDS011;26970;49.900;10.774;2024-03-22T05:15:00;8.02;;;4.20;;
39502;SDS011;26970;49.900;10.774;2024-03-22T05:17:26;8.95;;;5.03;;
39502;SDS011;26970;49.900;10.774;2024-03-22T05:19:52;11.07;;;3.95;;
39502;SDS011;26970;49.900;10.774;2024-03-22T05:22:17;11.20;;;4.72;;
39502;SDS011;26970;49.900;10.774;2024-03-22T05:24:45;9.18;;;4.63;;
39502;SDS011;26970;49.900;10.774;2024-03-22T05:27:11;10.68;;;4.63;;
39502;SDS011;26970;49.900;10.774;2024-03-22T05:29:37;10.82;;;5.05;;
39502;SDS011;26970;49.900;10.774;2024-03-22T05:32:03;11.60;;;5.25;;
39502;SDS011;26970;49.900;10.774;2024-03-22T05:34:29;9.40;;;5.07;;
39502;SDS011;26970;49.900;10.774;2024-03-22T05:36:58;10.07;;;5.00;;
39502;SDS011;26970;49.900;10.774;2024-03-22T05:39:24;10.27;;;5.53;;
39502;SDS011;26970;49.900;10.774;2024-03-22T05:41:49;10.93;;;5.10;;
39502;SDS011;26970;49.900;10.774;2024-03-22T05:44:15;9.55;;;5.22;;
39502;SDS011;26970;49.900;10.774;2024-03-22T05:46:41;7.78;;;4.75;;
39502;SDS011;26970;49.900;10.774;2024-03-22T05:49:06;9.63;;;5.25;;
39502;SDS011;26970;49.900;10.774;2024-03-22T05:51:32;8.30;;;5.03;;
39502;SDS011;26970;49.900;10.774;2024-03-22T05:53:58;11.85;;;5.00;;
39502;SDS011;26970;49.900;10.774;2024-03-22T05:56:24;12.57;;;5.32;;
39502;SDS011;26970;49.900;10.774;2024-03-22T05:58:50;14.40;;;6.13;;
39502;SDS011;26970;49.900;10.774;2024-03-22T06:01:15;9.63;;;4.63;;
39502;SDS011;26970;49.900;10.774;2024-03-22T06:03:42;15.95;;;5.53;;
39502;SDS011;26970;49.900;10.774;2024-03-22T06:06:07;17.52;;;6.53;;
39502;SDS011;26970;49.900;10.774;2024-03-22T06:08:33;25.83;;;8.85;;
39502;SDS011;26970;49.900;10.774;2024-03-22T06:11:00;21.30;;;8.15;;
39502;SDS011;26970;49.900;10.774;2024-03-22T06:13:25;18.70;;;8.88;;
39502;SDS011;26970;49.900;10.774;2024-03-22T06:15:51;22.05;;;8.25;;
39502;SDS011;26970;49.900;10.774;2024-03-22T06:18:17;22.40;;;10.02;;
39502;SDS011;26970;49.900;10.774;2024-03-22T06:20:42;22.40;;;9.60;;
39502;SDS011;26970;49.900;10.774;2024-03-22T06:23:08;21.48;;;8.85;;
39502;SDS011;26970;49.900;10.774;2024-03-22T06:25:34;29.70;;;10.23;;
39502;SDS011;26970;49.900;10.774;2024-03-22T06:27:59;24.25;;;9.75;;
39502;SDS011;26970;49.900;10.774;2024-03-22T06:30:25;24.48;;;9.60;;
39502;SDS011;26970;49.900;10.774;2024-03-22T06:32:50;25.63;;;9.27;;
39502;SDS011;26970;49.900;10.774;2024-03-22T06:35:16;18.08;;;7.78;;
39502;SDS011;26970;49.900;10.774;2024-03-22T06:37:41;16.98;;;8.45;;
39502;SDS011;26970;49.900;10.774;2024-03-22T06:40:07;16.48;;;7.75;;
39502;SDS011;26970;49.900;10.774;2024-03-22T06:42:33;18.55;;;8.10;;
39502;SDS011;26970;49.900;10.774;2024-03-22T06:44:58;20.05;;;8.80;;
39502;SDS011;26970;49.900;10.774;2024-03-22T06:47:24;15.55;;;7.20;;
39502;SDS011;26970;49.900;10.774;2024-03-22T06:49:49;18.10;;;8.15;;
39502;SDS011;26970;49.900;10.774;2024-03-22T06:52:15;18.80;;;8.75;;
39502;SDS011;26970;49.900;10.774;2024-03-22T06:54:40;20.80;;;8.93;;
39502;SDS011;26970;49.900;10.774;2024-03-22T06:57:06;21.92;;;9.32;;
39502;SDS011;26970;49.900;10.774;2024-03-22T06:59:32;19.80;;;9.13;;
39502;SDS011;26970;49.900;10.774;2024-03-22T07:01:57;19.85;;;9.70;;
39502;SDS011;26970;49.900;10.774;2024-03-22T07:04:23;19.58;;;9.55;;
39502;SDS011;26970;49.900;10.774;2024-03-22T07:06:49;22.88;;;10.52;;
39502;SDS011;26970;49.900;10.774;2024-03-22T07:09:14;18.80;;;10.05;;
39502;SDS011;26970;49.900;10.774;2024-03-22T07:11:40;45.65;;;19.45;;
39502;SDS011;26970;49.900;10.774;2024-03-22T07:14:06;30.63;;;12.75;;
39502;SDS011;26970;49.900;10.774;2024-03-22T07:16:32;24.15;;;14.85;;
39502;SDS011;26970;49.900;10.774;2024-03-22T07:18:57;24.33;;;13.10;;
39502;SDS011;26970;49.900;10.774;2024-03-22T07:21:23;33.67;;;14.25;;
39502;SDS011;26970;49.900;10.774;2024-03-22T07:23:48;22.70;;;10.80;;
39502;SDS011;26970;49.900;10.774;2024-03-22T07:26:13;25.98;;;13.48;;
39502;SDS011;26970;49.900;10.774;2024-03-22T07:28:39;27.23;;;11.98;;
39502;SDS011;26970;49.900;10.774;2024-03-22T07:31:04;22.25;;;10.98;;
39502;SDS011;26970;49.900;10.774;2024-03-22T07:33:31;30.02;;;12.05;;
39502;SDS011;26970;49.900;10.774;2024-03-22T07:35:56;23.08;;;11.15;;
39502;SDS011;26970;49.900;10.774;2024-03-22T07:38:26;21.58;;;10.20;;
39502;SDS011;26970;49.900;10.774;2024-03-22T07:40:51;25.23;;;11.70;;
39502;SDS011;26970;49.900;10.774;2024-03-22T07:43:18;24.50;;;12.55;;
39502;SDS011;26970;49.900;10.774;2024-03-22T07:45:43;28.00;;;13.38;;
39502;SDS011;26970;49.900;10.774;2024-03-22T07:48:09;25.15;;;12.93;;
39502;SDS011;26970;49.900;10.774;2024-03-22T07:50:35;37.97;;;21.33;;
39502;SDS011;26970;49.900;10.774;2024-03-22T07:53:01;32.53;;;17.35;;
39502;SDS011;26970;49.900;10.774;2024-03-22T07:55:26;40.25;;;21.48;;
39502;SDS011;26970;49.900;10.774;2024-03-22T07:57:52;38.70;;;20.55;;
39502;SDS011;26970;49.900;10.774;2024-03-22T08:00:17;47.92;;;25.42;;
39502;SDS011;26970;49.900;10.774;2024-03-22T08:02:43;53.22;;;25.55;;
39502;SDS011;26970;49.900;10.774;2024-03-22T08:05:08;93.32;;;44.85;;
39502;SDS011;26970;49.900;10.774;2024-03-22T08:07:34;34.90;;;15.95;;
39502;SDS011;26970;49.900;10.774;2024-03-22T08:10:00;32.05;;;17.40;;
39502;SDS011;26970;49.900;10.774;2024-03-22T08:12:27;26.20;;;14.60;;
39502;SDS011;26970;49.900;10.774;2024-03-22T08:14:53;29.58;;;15.32;;
39502;SDS011;26970;49.900;10.774;2024-03-22T08:17:18;30.75;;;17.00;;
39502;SDS011;26970;49.900;10.774;2024-03-22T08:19:44;33.47;;;22.63;;
39502;SDS011;26970;49.900;10.774;2024-03-22T08:22:09;20.25;;;13.15;;
39502;SDS011;26970;49.900;10.774;2024-03-22T08:24:35;23.95;;;12.30;;
39502;SDS011;26970;49.900;10.774;2024-03-22T08:27:02;19.67;;;11.63;;
39502;SDS011;26970;49.900;10.774;2024-03-22T08:29:28;19.25;;;9.57;;
39502;SDS011;26970;49.900;10.774;2024-03-22T08:31:54;19.60;;;10.10;;
39502;SDS011;26970;49.900;10.774;2024-03-22T08:34:20;21.75;;;10.68;;
39502;SDS011;26970;49.900;10.774;2024-03-22T08:36:46;20.55;;;10.27;;
39502;SDS011;26970;49.900;10.774;2024-03-22T08:39:12;20.25;;;9.70;;
39502;SDS011;26970;49.900;10.774;2024-03-22T08:41:38;17.70;;;9.40;;
39502;SDS011;26970;49.900;10.774;2024-03-22T08:44:03;19.70;;;9.63;;
39502;SDS011;26970;49.900;10.774;2024-03-22T08:46:29;19.80;;;9.48;;
39502;SDS011;26970;49.900;10.774;2024-03-22T08:48:56;21.02;;;9.93;;
39502;SDS011;26970;49.900;10.774;2024-03-22T08:51:22;15.57;;;8.82;;
39502;SDS011;26970;49.900;10.774;2024-03-22T08:53:47;21.58;;;9.60;;
39502;SDS011;26970;49.900;10.774;2024-03-22T08:56:14;19.50;;;9.93;;
39502;SDS011;26970;49.900;10.774;2024-03-22T08:58:39;21.77;;;9.45;;
39502;SDS011;26970;49.900;10.774;2024-03-22T09:01:05;16.45;;;9.07;;
39502;SDS011;26970;49.900;10.774;2024-03-22T09:03:31;18.80;;;9.18;;
39502;SDS011;26970;49.900;10.774;2024-03-22T09:05:56;21.00;;;9.85;;
39502;SDS011;26970;49.900;10.774;2024-03-22T09:08:22;18.73;;;9.77;;
39502;SDS011;26970;49.900;10.774;2024-03-22T09:10:48;19.60;;;9.95;;
39502;SDS011;26970;49.900;10.774;2024-03-22T09:13:13;21.48;;;9.93;;
39502;SDS011;26970;49.900;10.774;2024-03-22T09:15:39;20.25;;;9.88;;
39502;SDS011;26970;49.900;10.774;2024-03-22T09:18:05;18.90;;;9.63;;
39502;SDS011;26970;49.900;10.774;2024-03-22T09:20:30;18.13;;;9.48;;
39502;SDS011;26970;49.900;10.774;2024-03-22T09:22:57;19.02;;;10.05;;
39502;SDS011;26970;49.900;10.774;2024-03-22T09:25:25;17.33;;;9.80;;
39502;SDS011;26970;49.900;10.774;2024-03-22T09:27:50;18.25;;;9.48;;
39502;SDS011;26970;49.900;10.774;2024-03-22T09:30:16;23.08;;;9.60;;
39502;SDS011;26970;49.900;10.774;2024-03-22T09:32:42;15.75;;;8.65;;
39502;SDS011;26970;49.900;10.774;2024-03-22T09:35:10;15.52;;;8.43;;
39502;SDS011;26970;49.900;10.774;2024-03-22T09:37:40;16.60;;;8.93;;
39502;SDS011;26970;49.900;10.774;2024-03-22T09:40:06;15.57;;;7.88;;
39502;SDS011;26970;49.900;10.774;2024-03-22T09:42:32;16.45;;;8.52;;
39502;SDS011;26970;49.900;10.774;2024-03-22T09:45:04;16.80;;;7.78;;
39502;SDS011;26970;49.900;10.774;2024-03-22T09:47:32;14.32;;;8.20;;
39502;SDS011;26970;49.900;10.774;2024-03-22T09:49:58;17.20;;;8.85;;
39502;SDS011;26970;49.900;10.774;2024-03-22T09:52:25;14.07;;;8.38;;
39502;SDS011;26970;49.900;10.774;2024-03-22T09:54:52;15.50;;;8.27;;
39502;SDS011;26970;49.900;10.774;2024-03-22T09:57:18;15.27;;;7.95;;
39502;SDS011;26970;49.900;10.774;2024-03-22T09:59:43;14.85;;;8.07;;
39502;SDS011;26970;49.900;10.774;2024-03-22T10:02:10;15.65;;;8.90;;
39502;SDS011;26970;49.900;10.774;2024-03-22T10:04:40;14.23;;;7.50;;
39502;SDS011;26970;49.900;10.774;2024-03-22T10:07:06;15.15;;;7.53;;
39502;SDS011;26970;49.900;10.774;2024-03-22T10:09:33;12.25;;;6.43;;
39502;SDS011;26970;49.900;10.774;2024-03-22T10:11:59;12.85;;;6.90;;
39502;SDS011;26970;49.900;10.774;2024-03-22T10:14:24;18.38;;;7.15;;
39502;SDS011;26970;49.900;10.774;2024-03-22T10:16:53;13.10;;;7.05;;
39502;SDS011;26970;49.900;10.774;2024-03-22T10:19:20;13.90;;;7.10;;
39502;SDS011;26970;49.900;10.774;2024-03-22T10:21:47;13.70;;;7.22;;
39502;SDS011;26970;49.900;10.774;2024-03-22T10:24:13;12.43;;;6.85;;
39502;SDS011;26970;49.900;10.774;2024-03-22T10:26:39;13.45;;;7.07;;
39502;SDS011;26970;49.900;10.774;2024-03-22T10:29:07;16.52;;;8.35;;
39502;SDS011;26970;49.900;10.774;2024-03-22T10:31:34;15.02;;;7.20;;
39502;SDS011;26970;49.900;10.774;2024-03-22T10:34:00;14.68;;;7.40;;
39502;SDS011;26970;49.900;10.774;2024-03-22T10:36:29;13.15;;;6.70;;
39502;SDS011;26970;49.900;10.774;2024-03-22T10:38:56;11.63;;;5.57;;
39502;SDS011;26970;49.900;10.774;2024-03-22T10:41:23;10.90;;;6.05;;
39502;SDS011;26970;49.900;10.774;2024-03-22T10:43:49;12.82;;;5.70;;
39502;SDS011;26970;49.900;10.774;2024-03-22T10:46:14;8.50;;;5.10;;
39502;SDS011;26970;49.900;10.774;2024-03-22T10:48:44;11.98;;;5.68;;
39502;SDS011;26970;49.900;10.774;2024-03-22T10:51:10;9.18;;;5.22;;
39502;SDS011;26970;49.900;10.774;2024-03-22T10:53:36;10.68;;;5.82;;
39502;SDS011;26970;49.900;10.774;2024-03-22T10:56:03;11.20;;;5.90;;
39502;SDS011;26970;49.900;10.774;2024-03-22T10:58:31;11.63;;;6.30;;
39502;SDS011;26970;49.900;10.774;2024-03-22T11:00:57;9.00;;;5.57;;
39502;SDS011;26970;49.900;10.774;2024-03-22T11:03:24;15.25;;;5.95;;
39502;SDS011;26970;49.900;10.774;2024-03-22T11:05:54;9.90;;;6.22;;
39502;SDS011;26970;49.900;10.774;2024-03-22T11:08:28;10.18;;;5.18;;
39502;SDS011;26970;49.900;10.774;2024-03-22T11:10:56;6.38;;;3.60;;
39502;SDS011;26970;49.900;10.774;2024-03-22T11:13:22;9.05;;;3.75;;
39502;SDS011;26970;49.900;10.774;2024-03-22T11:15:48;6.30;;;3.30;;
39502;SDS011;26970;49.900;10.774;2024-03-22T11:18:14;6.68;;;3.33;;
39502;SDS011;26970;49.900;10.774;2024-03-22T11:20:40;5.28;;;3.05;;
39502;SDS011;26970;49.900;10.774;2024-03-22T11:23:06;6.20;;;2.70;;
39502;SDS011;26970;49.900;10.774;2024-03-22T11:25:33;4.00;;;2.10;;
39502;SDS011;26970;49.900;10.774;2024-03-22T11:27:59;3.85;;;2.00;;
39502;SDS011;26970;49.900;10.774;2024-03-22T11:30:27;5.50;;;2.28;;
39502;SDS011;26970;49.900;10.774;2024-03-22T11:32:54;4.95;;;2.50;;
39502;SDS011;26970;49.900;10.774;2024-03-22T11:35:19;4.18;;;2.10;;
39502;SDS011;26970;49.900;10.774;2024-03-22T11:37:45;4.40;;;2.50;;
39502;SDS011;26970;49.900;10.774;2024-03-22T11:40:11;4.50;;;2.45;;
39502;SDS011;26970;49.900;10.774;2024-03-22T11:42:38;5.07;;;2.78;;
39502;SDS011;26970;49.900;10.774;2024-03-22T11:45:05;6.85;;;3.10;;
39502;SDS011;26970;49.900;10.774;2024-03-22T11:47:34;5.45;;;3.20;;
39502;SDS011;26970;49.900;10.774;2024-03-22T11:49:59;6.40;;;3.63;;
39502;SDS011;26970;49.900;10.774;2024-03-22T11:52:25;6.88;;;3.55;;
39502;SDS011;26970;49.900;10.774;2024-03-22T11:54:51;7.32;;;3.60;;
39502;SDS011;26970;49.900;10.774;2024-03-22T11:57:17;7.65;;;4.22;;
39502;SDS011;26970;49.900;10.774;2024-03-22T11:59:43;6.55;;;3.80;;
39502;SDS011;26970;49.900;10.774;2024-03-22T12:02:09;7.43;;;4.15;;
39502;SDS011;26970;49.900;10.774;2024-03-22T12:04:35;7.80;;;3.97;;
39502;SDS011;26970;49.900;10.774;2024-03-22T12:07:00;7.85;;;4.10;;
39502;SDS011;26970;49.900;10.774;2024-03-22T12:09:26;9.15;;;4.70;;
39502;SDS011;26970;49.900;10.774;2024-03-22T12:11:51;11.20;;;4.68;;
39502;SDS011;26970;49.900;10.774;2024-03-22T12:14:20;6.63;;;4.03;;
39502;SDS011;26970;49.900;10.774;2024-03-22T12:16:46;9.45;;;4.30;;
39502;SDS011;26970;49.900;10.774;2024-03-22T12:19:11;7.40;;;4.38;;
39502;SDS011;26970;49.900;10.774;2024-03-22T12:21:37;8.10;;;4.82;;
39502;SDS011;26970;49.900;10.774;2024-03-22T12:24:02;8.27;;;4.63;;
39502;SDS011;26970;49.900;10.774;2024-03-22T12:26:28;6.00;;;3.88;;
39502;SDS011;26970;49.900;10.774;2024-03-22T12:28:54;6.18;;;3.55;;
39502;SDS011;26970;49.900;10.774;2024-03-22T12:31:22;6.57;;;3.15;;
39502;SDS011;26970;49.900;10.774;2024-03-22T12:33:48;6.45;;;2.85;;
39502;SDS011;26970;49.900;10.774;2024-03-22T12:36:13;7.07;;;3.40;;
39502;SDS011;26970;49.900;10.774;2024-03-22T12:38:39;5.20;;;3.00;;
39502;SDS011;26970;49.900;10.774;2024-03-22T12:41:04;5.18;;;3.03;;
39502;SDS011;26970;49.900;10.774;2024-03-22T12:43:30;5.22;;;2.80;;
39502;SDS011;26970;49.900;10.774;2024-03-22T12:45:56;5.18;;;2.28;;
39502;SDS011;26970;49.900;10.774;2024-03-22T12:48:22;4.40;;;2.70;;
39502;SDS011;26970;49.900;10.774;2024-03-22T12:50:47;5.15;;;2.42;;
39502;SDS011;26970;49.900;10.774;2024-03-22T12:53:12;4.93;;;2.70;;
39502;SDS011;26970;49.900;10.774;2024-03-22T12:55:38;4.68;;;2.80;;
39502;SDS011;26970;49.900;10.774;2024-03-22T12:58:04;3.95;;;2.38;;
39502;SDS011;26970;49.900;10.774;2024-03-22T13:00:30;3.50;;;2.10;;
39502;SDS011;26970;49.900;10.774;2024-03-22T13:02:55;5.57;;;2.30;;
39502;SDS011;26970;49.900;10.774;2024-03-22T13:05:21;11.30;;;2.40;;
39502;SDS011;26970;49.900;10.774;2024-03-22T13:07:47;5.90;;;2.50;;
39502;SDS011;26970;49.900;10.774;2024-03-22T13:10:13;3.60;;;2.35;;
39502;SDS011;26970;49.900;10.774;2024-03-22T13:12:38;5.25;;;2.65;;
39502;SDS011;26970;49.900;10.774;2024-03-22T13:15:04;7.05;;;3.05;;
39502;SDS011;26970;49.900;10.774;2024-03-22T13:17:30;4.63;;;2.63;;
39502;SDS011;26970;49.900;10.774;2024-03-22T13:19:55;4.43;;;2.78;;
39502;SDS011;26970;49.900;10.774;2024-03-22T13:22:21;5.13;;;2.80;;
39502;SDS011;26970;49.900;10.774;2024-03-22T13:24:47;6.35;;;3.40;;
39502;SDS011;26970;49.900;10.774;2024-03-22T13:27:14;5.13;;;3.35;;
39502;SDS011;26970;49.900;10.774;2024-03-22T13:29:39;5.38;;;2.90;;
39502;SDS011;26970;49.900;10.774;2024-03-22T13:32:05;5.82;;;2.95;;
39502;SDS011;26970;49.900;10.774;2024-03-22T13:34:33;5.93;;;3.10;;
39502;SDS011;26970;49.900;10.774;2024-03-22T13:37:02;5.38;;;3.05;;
39502;SDS011;26970;49.900;10.774;2024-03-22T13:39:28;3.70;;;2.28;;
39502;SDS011;26970;49.900;10.774;2024-03-22T13:41:56;4.03;;;2.53;;
39502;SDS011;26970;49.900;10.774;2024-03-22T13:44:22;3.72;;;2.30;;
39502;SDS011;26970;49.900;10.774;2024-03-22T13:46:50;2.85;;;1.95;;
39502;SDS011;26970;49.900;10.774;2024-03-22T13:49:17;5.05;;;2.72;;
39502;SDS011;26970;49.900;10.774;2024-03-22T13:51:45;4.38;;;2.63;;
39502;SDS011;26970;49.900;10.774;2024-03-22T13:54:11;6.47;;;2.40;;
39502;SDS011;26970;49.900;10.774;2024-03-22T13:56:37;3.50;;;1.90;;
39502;SDS011;26970;49.900;10.774;2024-03-22T13:59:03;3.78;;;2.28;;
39502;SDS011;26970;49.900;10.774;2024-03-22T14:01:30;3.50;;;2.05;;
39502;SDS011;26970;49.900;10.774;2024-03-22T14:04:05;3.55;;;2.05;;
39502;SDS011;26970;49.900;10.774;2024-03-22T14:06:31;5.97;;;2.00;;
39502;SDS011;26970;49.900;10.774;2024-03-22T14:08:57;2.53;;;1.63;;
39502;SDS011;26970;49.900;10.774;2024-03-22T14:11:28;1.85;;;1.40;;
39502;SDS011;26970;49.900;10.774;2024-03-22T14:13:56;4.18;;;1.65;;
39502;SDS011;26970;49.900;10.774;2024-03-22T14:16:22;2.42;;;1.23;;
39502;SDS011;26970;49.900;10.774;2024-03-22T14:18:47;1.98;;;1.00;;
39502;SDS011;26970;49.900;10.774;2024-03-22T14:21:14;2.53;;;1.17;;